Time;durP1;ratioP1;P1;durP2;ratioP2;P2;SDS_P1;SDS_P2;PMS_P1;PMS_P2;Temp;Humidity;BMP_temperature;BMP_pressure;BME280_temperature;BME280_humidity;BME280_pressure;Samples;Min_cycle;Max_cycle;Signal;HPM_P1;HPM_P2
2023/03/02 00:01:52;;;;;;;3.03;2.10;;;10.30;84.20;;;;;;6243941;23;20004;-84
2023/03/02 00:04:44;;;;;;;3.03;1.80;;;10.30;84.20;;;;;;6245353;23;20480;-84
2023/03/02 00:07:13;;;;;;;3.40;1.80;;;10.30;83.80;;;;;;6246123;23;20458;-85
2023/03/02 00:09:39;;;;;;;2.72;2.28;;;10.30;83.60;;;;;;6245442;23;20008;-85
2023/03/02 00:12:06;;;;;;;2.53;1.80;;;10.30;83.50;;;;;;6245681;23;20315;-85
2023/03/02 00:14:32;;;;;;;4.30;1.95;;;10.30;83.30;;;;;;6245329;23;20000;-85
2023/03/02 00:16:57;;;;;;;3.80;1.80;;;10.40;83.00;;;;;;6219203;23;20036;-85
2023/03/02 00:19:23;;;;;;;2.03;1.73;;;10.30;82.70;;;;;;6246325;23;20000;-86
2023/03/02 00:21:49;;;;;;;1.80;1.55;;;10.30;82.70;;;;;;6246050;23;20008;-86
2023/03/02 00:24:14;;;;;;;2.95;1.85;;;10.30;82.50;;;;;;6245955;23;20004;-87
2023/03/02 00:26:40;;;;;;;2.38;1.85;;;10.30;82.30;;;;;;6219004;23;20004;-84
2023/03/02 00:29:06;;;;;;;2.78;1.75;;;10.30;82.50;;;;;;6245667;23;20370;-84
2023/03/02 00:31:32;;;;;;;2.75;1.90;;;10.30;82.40;;;;;;6218822;23;20031;-84
2023/03/02 00:33:58;;;;;;;3.70;1.98;;;10.30;82.40;;;;;;6218479;23;20085;-85
2023/03/02 00:36:25;;;;;;;2.45;1.60;;;10.30;82.30;;;;;;6245968;23;20422;-85
2023/03/02 00:38:51;;;;;;;2.67;1.88;;;10.30;82.40;;;;;;6245677;23;20064;-84
2023/03/02 00:41:17;;;;;;;2.03;1.58;;;10.30;82.40;;;;;;6245884;23;20004;-84
2023/03/02 00:43:43;;;;;;;2.58;1.52;;;10.30;82.40;;;;;;6245370;23;20020;-84
2023/03/02 00:46:22;;;;;;;2.53;1.80;;;10.30;82.50;;;;;;6246511;23;20051;-85
2023/03/02 00:48:48;;;;;;;2.20;1.42;;;10.30;82.60;;;;;;6248209;23;20004;-85
2023/03/02 00:51:14;;;;;;;4.57;2.05;;;10.30;82.50;;;;;;6220671;23;20008;-86
2023/03/02 00:53:40;;;;;;;2.22;1.70;;;10.30;82.50;;;;;;6247669;23;19996;-85
2023/03/02 00:56:07;;;;;;;2.50;1.92;;;10.30;82.50;;;;;;6247984;23;20023;-86
2023/03/02 00:58:32;;;;;;;1.98;1.60;;;10.30;82.60;;;;;;6247325;23;19996;-86
2023/03/02 01:01:03;;;;;;;2.67;1.90;;;10.30;82.50;;;;;;6248114;23;20005;-86
2023/03/02 01:03:29;;;;;;;2.30;2.00;;;10.30;82.40;;;;;;6247599;23;20007;-87
2023/03/02 01:05:55;;;;;;;2.15;1.73;;;10.40;82.50;;;;;;6247487;23;20395;-87
2023/03/02 01:08:26;;;;;;;3.60;1.77;;;10.40;82.20;;;;;;6247794;23;20007;-88
2023/03/02 01:10:52;;;;;;;2.10;1.70;;;10.40;82.20;;;;;;6248436;23;19996;-86
2023/03/02 01:13:18;;;;;;;2.03;1.77;;;10.40;82.20;;;;;;6247358;23;20007;-86
2023/03/02 01:15:44;;;;;;;2.70;1.83;;;10.40;82.10;;;;;;6247064;23;19996;-86
2023/03/02 01:18:10;;;;;;;1.95;1.40;;;10.40;81.80;;;;;;6221253;22;20023;-86
2023/03/02 01:20:36;;;;;;;2.13;1.63;;;10.40;81.90;;;;;;6247617;23;20395;-86
2023/03/02 01:23:01;;;;;;;3.42;1.65;;;10.40;82.00;;;;;;6220474;23;20004;-85
2023/03/02 01:25:27;;;;;;;2.10;1.48;;;10.40;81.90;;;;;;6220681;23;20005;-86
2023/03/02 01:27:53;;;;;;;1.77;1.60;;;10.40;81.80;;;;;;6220691;23;20080;-85
2023/03/02 01:30:19;;;;;;;2.08;1.67;;;10.40;81.80;;;;;;6247522;23;20319;-87
2023/03/02 01:32:45;;;;;;;1.80;1.50;;;10.40;81.80;;;;;;6246215;23;20008;-84
2023/03/02 01:35:10;;;;;;;2.92;1.70;;;10.40;81.90;;;;;;6246778;23;20007;-84
2023/03/02 01:37:36;;;;;;;2.63;1.77;;;10.40;82.10;;;;;;6246901;23;20035;-86
2023/03/02 01:40:05;;;;;;;2.40;1.63;;;10.40;82.00;;;;;;6220457;23;20000;-85
2023/03/02 01:42:37;;;;;;;2.88;1.67;;;10.40;82.00;;;;;;6246627;23;20493;-86
2023/03/02 01:45:03;;;;;;;1.48;1.30;;;10.40;81.80;;;;;;6221319;23;20023;-88
2023/03/02 01:47:38;;;;;;;2.60;1.80;;;10.40;81.70;;;;;;6247961;23;20030;-87
2023/03/02 01:50:13;;;;;;;1.75;1.42;;;10.40;81.70;;;;;;6221098;23;20004;-87
2023/03/02 01:52:39;;;;;;;1.80;1.38;;;10.40;81.60;;;;;;6247774;23;20000;-87
2023/03/02 01:55:08;;;;;;;1.65;1.17;;;10.40;81.50;;;;;;6247787;23;20004;-87
2023/03/02 01:57:42;;;;;;;1.48;1.00;;;10.40;81.60;;;;;;6247080;23;20000;-87
2023/03/02 02:00:11;;;;;;;2.78;1.52;;;10.30;81.40;;;;;;6220844;23;20011;-86
2023/03/02 02:02:40;;;;;;;1.60;1.40;;;10.30;81.00;;;;;;6247642;23;20015;-86
2023/03/02 02:05:08;;;;;;;0.88;0.80;;;10.30;80.90;;;;;;6247598;23;20039;-87
2023/03/02 02:07:35;;;;;;;1.58;1.10;;;10.30;80.90;;;;;;6247324;23;20423;-87
2023/03/02 02:10:02;;;;;;;2.00;1.20;;;10.30;80.90;;;;;;6246228;23;20004;-86
2023/03/02 02:12:28;;;;;;;1.33;1.13;;;10.30;80.70;;;;;;6247175;23;20000;-86
2023/03/02 02:14:59;;;;;;;1.25;0.90;;;10.30;80.30;;;;;;6246696;23;19996;-86
2023/03/02 02:17:27;;;;;;;1.35;1.20;;;10.30;80.30;;;;;;6247346;23;20035;-85
2023/03/02 02:20:19;;;;;;;1.23;0.90;;;10.30;80.00;;;;;;6220205;23;20000;-86
2023/03/02 02:23:14;;;;;;;1.15;0.95;;;10.30;80.00;;;;;;6164629;23;20073;-86
2023/03/02 02:25:52;;;;;;;2.70;0.98;;;10.30;79.90;;;;;;6247514;23;20004;-87
2023/03/02 02:28:50;;;;;;;1.13;0.98;;;10.30;80.10;;;;;;6246861;23;20004;-87
2023/03/02 02:31:18;;;;;;;2.20;1.17;;;10.30;80.00;;;;;;6246715;23;20039;-85
2023/03/02 02:33:48;;;;;;;1.52;1.13;;;10.20;79.80;;;;;;6219549;23;20011;-86
2023/03/02 02:36:31;;;;;;;1.00;0.80;;;10.20;80.40;;;;;;6220399;23;20138;-86
2023/03/02 02:39:01;;;;;;;2.45;0.70;;;10.30;79.80;;;;;;6247406;23;19996;-86
2023/03/02 02:41:32;;;;;;;1.00;0.90;;;10.30;79.60;;;;;;6219547;23;20438;-86
2023/03/02 02:44:10;;;;;;;0.90;0.80;;;10.30;79.80;;;;;;6219803;23;20000;-87
2023/03/02 02:46:37;;;;;;;1.30;0.60;;;10.30;79.80;;;;;;6216231;23;20435;-87
2023/03/02 02:49:05;;;;;;;2.35;0.80;;;10.30;79.60;;;;;;6215038;23;20032;-86
2023/03/02 02:51:32;;;;;;;1.10;0.80;;;10.30;79.30;;;;;;6216215;23;20308;-86
2023/03/02 02:54:02;;;;;;;1.23;0.77;;;10.30;79.40;;;;;;6217003;23;20006;-88
2023/03/02 02:56:32;;;;;;;1.23;0.88;;;10.30;79.30;;;;;;6217296;23;20074;-87
2023/03/02 02:59:05;;;;;;;0.95;0.70;;;10.30;79.50;;;;;;6217524;23;20076;-87
2023/03/02 03:01:32;;;;;;;1.25;0.82;;;10.30;79.50;;;;;;6217701;23;20072;-87
2023/03/02 03:04:02;;;;;;;1.10;0.90;;;10.20;79.10;;;;;;6215021;23;20686;-86
2023/03/02 03:06:37;;;;;;;1.15;0.90;;;10.20;79.10;;;;;;6216340;23;20032;-86
2023/03/02 03:09:07;;;;;;;2.30;0.80;;;10.30;79.10;;;;;;6217306;23;20031;-88
2023/03/02 03:11:35;;;;;;;1.20;0.90;;;10.30;79.10;;;;;;6216592;23;20005;-86
2023/03/02 03:14:08;;;;;;;1.73;0.95;;;10.20;79.10;;;;;;6214558;23;20000;-87
2023/03/02 03:16:36;;;;;;;1.70;0.90;;;10.20;79.20;;;;;;6214877;23;20007;-86
2023/03/02 03:19:14;;;;;;;0.75;0.75;;;10.20;79.30;;;;;;6216294;23;20417;-86
2023/03/02 03:21:40;;;;;;;0.88;0.73;;;10.20;79.30;;;;;;6215080;23;20431;-87
2023/03/02 03:24:06;;;;;;;1.10;0.77;;;10.20;79.40;;;;;;6214684;23;20092;-86
2023/03/02 03:26:32;;;;;;;2.38;0.90;;;10.20;79.50;;;;;;6216636;23;20062;-86
2023/03/02 03:28:57;;;;;;;1.27;0.88;;;10.20;79.50;;;;;;6216156;23;20419;-85
2023/03/02 03:31:25;;;;;;;1.00;0.82;;;10.20;79.50;;;;;;6215854;23;20008;-87
2023/03/02 03:33:53;;;;;;;0.80;0.80;;;10.20;79.50;;;;;;6215963;23;20098;-86
2023/03/02 03:36:19;;;;;;;1.45;0.75;;;10.20;79.60;;;;;;6215987;23;20323;-86
2023/03/02 03:38:45;;;;;;;1.15;0.57;;;10.20;79.70;;;;;;6215922;23;20003;-85
2023/03/02 03:41:11;;;;;;;1.25;0.80;;;10.20;79.70;;;;;;6216245;23;20000;-86
2023/03/02 03:43:37;;;;;;;0.82;0.57;;;10.20;79.50;;;;;;6214089;23;20012;-87
2023/03/02 03:46:03;;;;;;;1.15;0.60;;;10.20;79.20;;;;;;6216045;23;20028;-87
2023/03/02 03:48:28;;;;;;;0.80;0.60;;;10.20;79.10;;;;;;6215597;23;20020;-87
2023/03/02 03:50:54;;;;;;;1.50;0.80;;;10.20;78.90;;;;;;6213858;23;20001;-87
2023/03/02 03:53:20;;;;;;;1.05;0.75;;;10.20;79.00;;;;;;6215518;23;20470;-86
2023/03/02 03:55:45;;;;;;;0.88;0.60;;;10.10;78.60;;;;;;6215419;23;20001;-86
2023/03/02 03:58:11;;;;;;;1.05;0.70;;;10.20;78.80;;;;;;6213739;23;20000;-87
2023/03/02 04:00:37;;;;;;;0.57;0.50;;;10.20;78.60;;;;;;6215643;23;19997;-87
2023/03/02 04:03:02;;;;;;;1.25;0.90;;;10.10;78.60;;;;;;6214269;23;20434;-86
2023/03/02 04:05:28;;;;;;;1.10;0.73;;;10.10;78.60;;;;;;6214980;23;20078;-84
2023/03/02 04:07:54;;;;;;;0.80;0.80;;;10.10;78.60;;;;;;6215370;23;20001;-84
2023/03/02 04:10:20;;;;;;;0.80;0.80;;;10.10;78.60;;;;;;6214910;23;20055;-84
2023/03/02 04:12:45;;;;;;;1.42;0.73;;;10.10;78.50;;;;;;6213490;23;20059;-85
2023/03/02 04:15:14;;;;;;;0.90;0.70;;;10.10;78.60;;;;;;6213684;23;20407;-86
2023/03/02 04:17:42;;;;;;;0.95;0.60;;;10.10;78.90;;;;;;6215820;23;20307;-86
2023/03/02 04:20:09;;;;;;;1.67;0.90;;;10.10;79.00;;;;;;6214198;23;20039;-86
2023/03/02 04:22:35;;;;;;;0.68;0.50;;;10.10;79.00;;;;;;6215601;23;20009;-87
2023/03/02 04:25:00;;;;;;;0.98;0.77;;;10.10;79.00;;;;;;6218739;23;20005;-85
2023/03/02 04:27:26;;;;;;;1.42;0.90;;;10.10;79.00;;;;;;6218895;23;20008;-86
2023/03/02 04:29:52;;;;;;;0.70;0.70;;;10.10;79.00;;;;;;6218854;23;20536;-87
2023/03/02 04:32:18;;;;;;;0.98;0.85;;;10.10;79.20;;;;;;6217542;23;20009;-86
2023/03/02 04:34:44;;;;;;;1.00;0.82;;;10.00;79.20;;;;;;6217997;23;20012;-87
2023/03/02 04:37:09;;;;;;;0.98;0.88;;;10.00;79.30;;;;;;6219225;23;20024;-88
2023/03/02 04:39:35;;;;;;;2.92;0.80;;;10.00;79.30;;;;;;6217553;23;20095;-85
2023/03/02 04:42:01;;;;;;;1.13;0.75;;;9.90;79.30;;;;;;6217744;23;20005;-85
2023/03/02 04:44:27;;;;;;;1.50;1.13;;;9.90;79.40;;;;;;6216704;23;20020;-86
2023/03/02 04:46:53;;;;;;;1.85;1.40;;;9.80;79.60;;;;;;6216978;23;20087;-85
2023/03/02 04:49:19;;;;;;;1.60;1.23;;;9.80;79.80;;;;;;6218544;23;20111;-86
2023/03/02 04:51:46;;;;;;;1.55;1.10;;;9.80;80.10;;;;;;6216752;23;20008;-86
2023/03/02 04:54:21;;;;;;;1.98;1.20;;;9.80;80.30;;;;;;6217131;23;20103;-86
2023/03/02 04:56:47;;;;;;;1.60;1.20;;;9.80;80.40;;;;;;6218259;23;20364;-85
2023/03/02 04:59:15;;;;;;;1.30;1.20;;;9.90;80.30;;;;;;6218062;23;20281;-86
2023/03/02 05:01:40;;;;;;;1.48;1.20;;;9.90;80.30;;;;;;6218366;23;20004;-86
2023/03/02 05:04:06;;;;;;;1.05;0.95;;;9.90;80.40;;;;;;6217575;23;20009;-85
2023/03/02 05:09:11;;;;;;;1.73;1.00;;;9.80;79.30;;;;;;6296669;22;20026;-85
2023/03/02 05:11:37;;;;;;;1.35;1.20;;;9.80;79.10;;;;;;6279569;22;20329;-85
2023/03/02 05:14:05;;;;;;;1.73;1.23;;;9.90;78.90;;;;;;6283071;22;20000;-86
2023/03/02 05:16:33;;;;;;;1.92;1.10;;;9.90;79.20;;;;;;6291774;22;20034;-85
2023/03/02 05:19:00;;;;;;;1.35;1.05;;;9.90;79.20;;;;;;6280334;22;19999;-85
2023/03/02 05:21:25;;;;;;;2.28;1.00;;;9.90;79.20;;;;;;6276781;22;20057;-84
2023/03/02 05:23:52;;;;;;;1.10;0.98;;;9.90;78.90;;;;;;6277310;22;20004;-85
2023/03/02 05:26:17;;;;;;;1.98;1.10;;;10.00;79.10;;;;;;6249975;22;20016;-84
2023/03/02 05:28:44;;;;;;;2.50;1.00;;;10.00;79.20;;;;;;6250084;22;20440;-85
2023/03/02 05:31:26;;;;;;;2.10;1.25;;;10.00;79.20;;;;;;6277184;22;20050;-85
2023/03/02 05:33:52;;;;;;;1.10;1.00;;;10.00;78.60;;;;;;6278012;22;20000;-85
2023/03/02 05:36:18;;;;;;;1.45;1.00;;;10.00;78.90;;;;;;6277953;22;20437;-85
2023/03/02 05:38:43;;;;;;;1.10;1.00;;;10.00;78.70;;;;;;6251035;22;20000;-85
2023/03/02 05:41:09;;;;;;;1.13;0.98;;;10.00;78.60;;;;;;6277430;22;20007;-85
2023/03/02 05:43:35;;;;;;;1.15;1.00;;;10.00;78.40;;;;;;6280456;22;20023;-92
2023/03/02 05:46:01;;;;;;;2.40;1.15;;;10.00;78.70;;;;;;6256034;22;20003;-94
2023/03/02 05:48:28;;;;;;;0.77;0.77;;;9.90;78.80;;;;;;6253545;22;20050;-92
2023/03/02 05:50:54;;;;;;;3.05;1.35;;;9.90;78.90;;;;;;6252217;22;20502;-92
2023/03/02 05:53:20;;;;;;;1.92;1.35;;;9.80;78.90;;;;;;6253337;22;20053;-83
2023/03/02 05:55:46;;;;;;;1.90;1.40;;;9.90;79.10;;;;;;6285041;22;20000;-90
2023/03/02 05:58:16;;;;;;;1.88;1.67;;;9.90;79.20;;;;;;6282419;22;20004;-90
2023/03/02 06:00:42;;;;;;;2.33;1.67;;;9.90;79.30;;;;;;6283224;22;19996;-89
2023/03/02 06:03:08;;;;;;;2.60;1.85;;;9.90;79.20;;;;;;6283420;22;20100;-90
2023/03/02 06:05:34;;;;;;;1.50;1.40;;;9.90;79.10;;;;;;6253142;22;20430;-89
2023/03/02 06:07:59;;;;;;;2.10;1.80;;;9.90;79.00;;;;;;6248130;23;20016;-89
2023/03/02 06:10:25;;;;;;;2.83;1.58;;;9.90;79.00;;;;;;6250681;23;20012;-88
2023/03/02 06:12:51;;;;;;;2.25;1.55;;;9.90;79.00;;;;;;6249458;23;20008;-89
2023/03/02 06:15:17;;;;;;;1.80;1.38;;;10.00;79.00;;;;;;6249132;23;20001;-88
2023/03/02 06:17:43;;;;;;;1.77;1.27;;;9.90;79.20;;;;;;6247972;23;20054;-89
2023/03/02 06:20:10;;;;;;;2.33;1.60;;;9.90;79.20;;;;;;6246507;23;20000;-90
2023/03/02 06:22:44;;;;;;;2.33;1.58;;;9.90;78.90;;;;;;6246174;23;20765;-86
2023/03/02 06:25:12;;;;;;;2.40;1.30;;;9.90;79.50;;;;;;6245727;23;20028;-88
2023/03/02 06:27:39;;;;;;;2.03;1.40;;;9.90;79.40;;;;;;6248907;23;20011;-90
2023/03/02 06:30:06;;;;;;;1.77;1.33;;;9.90;79.50;;;;;;6248185;23;20386;-90
2023/03/02 06:32:34;;;;;;;1.40;1.27;;;9.90;79.70;;;;;;6248176;23;20326;-88
2023/03/02 06:35:00;;;;;;;2.15;1.60;;;9.80;79.60;;;;;;6246761;23;20000;-88
2023/03/02 06:37:28;;;;;;;2.58;1.63;;;9.90;79.50;;;;;;6247676;23;20023;-88
2023/03/02 06:39:55;;;;;;;2.10;1.45;;;9.80;79.10;;;;;;6247333;23;20449;-89
2023/03/02 06:42:21;;;;;;;2.00;1.50;;;9.90;79.50;;;;;;6247865;23;20059;-88
2023/03/02 06:44:47;;;;;;;3.10;1.60;;;9.90;79.30;;;;;;6247357;23;20000;-89
2023/03/02 06:47:13;;;;;;;2.17;1.58;;;9.90;79.40;;;;;;6243553;23;20008;-82
2023/03/02 06:49:39;;;;;;;1.83;1.63;;;9.90;80.50;;;;;;6243676;23;20012;-82
2023/03/02 06:54:36;;;;;;;2.70;1.33;;;10.00;79.50;;;;;;6221579;23;20024;-90
2023/03/02 06:57:02;;;;;;;3.58;1.55;;;10.00;79.10;;;;;;6190055;23;20005;-89
2023/03/02 06:59:28;;;;;;;2.47;1.73;;;10.20;80.00;;;;;;6215781;23;20004;-89
2023/03/02 07:01:54;;;;;;;1.70;1.48;;;10.30;79.50;;;;;;6216854;23;20004;-89
2023/03/02 07:04:20;;;;;;;1.50;1.30;;;10.30;79.10;;;;;;6216315;23;20079;-84
2023/03/02 07:06:46;;;;;;;2.58;1.65;;;10.30;79.00;;;;;;6187958;23;20004;-85
2023/03/02 07:09:12;;;;;;;1.75;1.50;;;10.30;78.60;;;;;;6215499;23;20012;-82
2023/03/02 07:11:38;;;;;;;5.07;2.33;;;10.30;79.10;;;;;;6187929;23;20396;-83
2023/03/02 07:14:04;;;;;;;2.30;1.65;;;10.30;79.30;;;;;;6215094;23;20360;-83
2023/03/02 07:16:30;;;;;;;2.60;1.58;;;10.30;79.60;;;;;;6215187;23;20081;-87
2023/03/02 07:18:56;;;;;;;3.95;1.70;;;10.30;79.60;;;;;;6215771;23;20055;-85
2023/03/02 07:21:22;;;;;;;2.78;1.70;;;10.40;80.20;;;;;;6215751;23;20004;-85
2023/03/02 07:23:47;;;;;;;2.60;1.63;;;10.40;79.90;;;;;;6189276;23;20113;-85
2023/03/02 07:26:13;;;;;;;3.60;2.03;;;10.50;79.80;;;;;;6215556;23;20044;-85
2023/03/02 07:28:40;;;;;;;2.55;1.60;;;10.50;79.80;;;;;;6189071;23;20000;-87
2023/03/02 07:31:07;;;;;;;3.03;1.98;;;10.60;79.80;;;;;;6189123;23;20005;-88
2023/03/02 07:33:33;;;;;;;3.30;1.83;;;10.60;80.00;;;;;;6216010;23;20072;-88
2023/03/02 07:36:00;;;;;;;3.45;2.10;;;10.60;79.90;;;;;;6215872;23;20288;-88
2023/03/02 07:38:26;;;;;;;2.72;1.80;;;10.60;80.00;;;;;;6189080;23;20001;-88
2023/03/02 07:40:51;;;;;;;3.92;2.03;;;10.60;79.90;;;;;;6215750;23;20000;-88
2023/03/02 07:43:17;;;;;;;3.70;2.03;;;10.60;79.90;;;;;;6215871;23;20309;-88
2023/03/02 07:45:43;;;;;;;5.00;1.95;;;10.60;80.10;;;;;;6188991;23;20375;-88
2023/03/02 07:48:09;;;;;;;4.72;2.00;;;10.60;80.30;;;;;;6215887;23;20129;-88
2023/03/02 07:50:35;;;;;;;2.97;2.13;;;10.60;80.30;;;;;;6215230;23;20431;-88
2023/03/02 07:53:00;;;;;;;3.40;2.13;;;10.60;80.50;;;;;;6215079;23;20016;-88
2023/03/02 07:55:26;;;;;;;3.08;2.08;;;10.70;80.60;;;;;;6188894;23;20423;-88
2023/03/02 07:57:52;;;;;;;4.32;2.33;;;10.70;80.80;;;;;;6215584;23;19997;-88
2023/03/02 08:00:19;;;;;;;3.20;1.77;;;10.60;80.70;;;;;;6188992;23;20016;-88
2023/03/02 08:02:45;;;;;;;4.47;1.95;;;10.70;80.70;;;;;;6189081;23;20096;-88
2023/03/02 08:05:12;;;;;;;2.75;2.10;;;10.80;80.60;;;;;;6188901;23;20036;-88
2023/03/02 08:07:39;;;;;;;2.70;1.75;;;10.80;80.60;;;;;;6189321;23;20343;-88
2023/03/02 08:10:05;;;;;;;2.90;1.73;;;10.90;80.50;;;;;;6189285;23;20442;-88
2023/03/02 08:12:31;;;;;;;1.90;1.65;;;10.90;80.80;;;;;;6215782;23;20016;-88
2023/03/02 08:14:57;;;;;;;4.15;1.98;;;11.00;81.00;;;;;;6189828;23;20446;-88
2023/03/02 08:17:23;;;;;;;5.05;2.22;;;11.10;80.70;;;;;;6189192;23;20004;-88
2023/03/02 08:19:49;;;;;;;2.40;1.75;;;11.10;80.80;;;;;;6189514;23;20039;-88
2023/03/02 08:22:14;;;;;;;2.03;1.70;;;11.20;80.70;;;;;;6216091;23;20308;-88
2023/03/02 08:24:40;;;;;;;3.85;1.92;;;11.30;80.90;;;;;;6215963;23;20005;-89
2023/03/02 08:27:07;;;;;;;4.30;1.92;;;11.40;80.70;;;;;;6190204;23;20070;-88
2023/03/02 08:29:33;;;;;;;2.20;1.63;;;11.40;80.50;;;;;;6216501;23;20000;-88
2023/03/02 08:31:59;;;;;;;3.05;1.88;;;11.50;80.30;;;;;;6190181;23;20008;-87
2023/03/02 08:34:25;;;;;;;2.28;1.45;;;11.50;80.00;;;;;;6189801;23;20302;-88
2023/03/02 08:36:52;;;;;;;3.30;2.00;;;11.50;79.80;;;;;;6189989;23;20059;-88
2023/03/02 08:39:18;;;;;;;2.13;1.65;;;11.60;79.60;;;;;;6190265;23;20028;-87
2023/03/02 08:41:43;;;;;;;3.60;1.40;;;11.60;79.40;;;;;;6189534;23;20016;-88
2023/03/02 08:44:09;;;;;;;2.35;1.75;;;11.60;79.30;;;;;;6216437;23;20442;-88
2023/03/02 08:46:35;;;;;;;2.15;1.73;;;11.50;79.00;;;;;;6215704;23;20122;-88
2023/03/02 08:49:01;;;;;;;3.22;2.10;;;11.40;79.30;;;;;;6215966;23;20408;-88
2023/03/02 08:51:27;;;;;;;1.60;1.35;;;11.50;79.60;;;;;;6215260;23;20075;-87
2023/03/02 08:53:55;;;;;;;2.65;1.58;;;11.50;80.30;;;;;;6189062;23;20013;-88
2023/03/02 08:56:31;;;;;;;2.25;1.88;;;11.50;79.80;;;;;;6215671;23;19992;-88
2023/03/02 08:59:03;;;;;;;2.17;1.65;;;11.40;80.10;;;;;;6190070;23;20005;-88
2023/03/02 09:01:33;;;;;;;3.10;1.35;;;11.40;80.20;;;;;;6216012;23;20489;-88
2023/03/02 09:03:59;;;;;;;2.17;1.85;;;11.50;80.00;;;;;;6189167;23;20016;-88
2023/03/02 09:06:26;;;;;;;3.30;2.05;;;11.50;79.90;;;;;;6216427;23;20472;-88
2023/03/02 09:08:52;;;;;;;2.45;1.70;;;11.50;79.90;;;;;;6217854;23;20011;-89
2023/03/02 09:11:18;;;;;;;1.75;1.50;;;11.50;79.90;;;;;;6218086;23;20076;-88
2023/03/02 09:13:44;;;;;;;2.05;1.77;;;11.50;79.80;;;;;;6190893;23;20000;-89
2023/03/02 09:16:11;;;;;;;2.63;1.60;;;11.50;79.80;;;;;;6217659;23;20067;-89
2023/03/02 09:18:36;;;;;;;2.58;1.63;;;11.50;79.70;;;;;;6217413;23;20028;-89
2023/03/02 09:21:02;;;;;;;2.20;1.52;;;11.50;79.80;;;;;;6190867;23;20032;-90
2023/03/02 09:23:29;;;;;;;3.20;1.70;;;11.50;79.60;;;;;;6217346;23;20005;-90
2023/03/02 09:25:55;;;;;;;2.08;1.55;;;11.60;79.70;;;;;;6217685;23;20331;-90
2023/03/02 09:28:21;;;;;;;4.60;1.65;;;11.60;79.50;;;;;;6216898;23;20015;-90
2023/03/02 09:30:51;;;;;;;2.15;1.60;;;11.60;79.30;;;;;;6190708;23;20012;-90
2023/03/02 09:33:18;;;;;;;3.20;1.85;;;11.60;79.60;;;;;;6191061;23;20032;-89
2023/03/02 09:35:46;;;;;;;1.88;1.45;;;11.60;79.60;;;;;;6191489;23;20336;-90
2023/03/02 09:38:14;;;;;;;1.40;1.30;;;11.70;79.40;;;;;;6191044;23;20005;-89
2023/03/02 09:41:05;;;;;;;1.65;1.35;;;11.70;79.20;;;;;;6190578;23;20001;-89
2023/03/02 09:43:44;;;;;;;1.90;1.45;;;11.70;79.10;;;;;;6216970;23;20019;-88
2023/03/02 09:46:28;;;;;;;3.63;1.58;;;11.70;79.00;;;;;;6217025;23;20010;-85
2023/03/02 09:49:02;;;;;;;1.58;1.20;;;11.80;79.00;;;;;;6190709;23;20139;-85
2023/03/02 09:51:38;;;;;;;1.38;1.27;;;11.90;80.50;;;;;;6216910;23;20004;-85
2023/03/02 09:54:09;;;;;;;2.45;1.50;;;11.90;79.80;;;;;;6216932;23;20428;-85
2023/03/02 09:56:48;;;;;;;3.95;1.23;;;11.90;79.30;;;;;;6216674;23;20001;-85
2023/03/02 09:59:40;;;;;;;3.08;1.55;;;11.90;78.70;;;;;;6216223;23;20431;-85
2023/03/02 10:02:28;;;;;;;3.67;1.35;;;11.90;78.70;;;;;;6215876;23;20032;-86
2023/03/02 10:04:56;;;;;;;2.10;1.30;;;11.90;78.70;;;;;;6215962;23;20028;-85
2023/03/02 10:07:28;;;;;;;3.20;1.35;;;11.90;78.80;;;;;;6189679;23;20326;-85
2023/03/02 10:10:21;;;;;;;2.22;1.38;;;11.90;78.80;;;;;;6216161;23;20308;-85
2023/03/02 10:13:00;;;;;;;1.90;1.48;;;11.90;78.90;;;;;;6211964;23;20151;-88
2023/03/02 10:15:55;;;;;;;1.60;1.20;;;11.90;78.80;;;;;;6189077;23;20008;-85
2023/03/02 10:18:39;;;;;;;1.65;1.38;;;11.90;78.70;;;;;;6196242;23;20008;-87
2023/03/02 10:21:11;;;;;;;1.42;1.20;;;12.00;78.60;;;;;;6189205;23;20079;-80
2023/03/02 10:23:45;;;;;;;1.63;1.17;;;11.90;78.50;;;;;;6189411;23;20350;-81
2023/03/02 10:26:31;;;;;;;1.10;1.00;;;12.00;78.40;;;;;;6189016;23;20005;-81
2023/03/02 10:29:18;;;;;;;1.55;1.23;;;12.00;78.30;;;;;;6215359;23;20028;-81
2023/03/02 10:31:45;;;;;;;3.08;2.30;;;12.10;78.10;;;;;;6188583;23;20012;-80
2023/03/02 10:34:12;;;;;;;3.05;1.60;;;12.00;77.80;;;;;;6216004;23;20004;-87
2023/03/02 10:36:42;;;;;;;1.92;1.30;;;12.10;78.30;;;;;;6217127;23;20422;-87
2023/03/02 10:39:15;;;;;;;2.95;1.63;;;12.10;78.10;;;;;;6216125;23;19996;-88
2023/03/02 10:41:52;;;;;;;2.03;1.80;;;12.10;78.20;;;;;;6216158;23;20004;-87
2023/03/02 10:44:22;;;;;;;2.53;1.40;;;12.10;78.90;;;;;;6216417;23;20000;-87
2023/03/02 10:46:50;;;;;;;2.17;1.48;;;12.20;78.80;;;;;;6216480;23;20011;-87
2023/03/02 10:49:25;;;;;;;3.58;1.50;;;12.20;78.80;;;;;;6189925;23;20054;-87
2023/03/02 10:52:16;;;;;;;3.80;1.40;;;12.20;78.90;;;;;;6216618;23;20442;-87
2023/03/02 10:54:42;;;;;;;2.40;1.60;;;12.20;78.80;;;;;;6214712;23;20605;-88
2023/03/02 10:57:22;;;;;;;3.53;1.40;;;12.30;78.90;;;;;;6216678;23;20027;-88
2023/03/02 10:59:48;;;;;;;;;;;12.30;79.00;;;;;;6216558;23;20032;-88
2023/03/02 11:02:16;;;;;;;2.38;1.40;;;12.40;78.60;;;;;;6216487;23;19923;-87
2023/03/02 11:04:43;;;;;;;1.52;1.25;;;12.50;78.60;;;;;;6215660;23;20102;-87
2023/03/02 11:07:18;;;;;;;1.40;1.30;;;12.50;78.40;;;;;;6216069;23;20012;-85
2023/03/02 11:10:23;;;;;;;3.22;1.55;;;12.60;78.10;;;;;;6216432;23;20063;-85
2023/03/02 11:12:52;;;;;;;1.23;1.10;;;12.70;77.70;;;;;;6215945;23;20083;-85
2023/03/02 11:15:42;;;;;;;1.55;1.20;;;12.80;77.80;;;;;;6215854;23;20031;-86
2023/03/02 11:18:29;;;;;;;2.00;1.67;;;12.80;77.90;;;;;;6216362;23;20432;-86
2023/03/02 11:21:03;;;;;;;2.03;1.58;;;12.80;78.50;;;;;;6216677;23;20005;-86
2023/03/02 11:23:40;;;;;;;2.70;1.40;;;12.80;78.50;;;;;;6215949;23;20075;-87
2023/03/02 11:26:22;;;;;;;1.77;1.40;;;12.80;79.20;;;;;;6216415;23;20036;-85
2023/03/02 11:28:53;;;;;;;1.73;1.42;;;12.80;79.30;;;;;;6216336;23;20076;-85
2023/03/02 11:31:48;;;;;;;2.05;1.55;;;12.90;79.60;;;;;;6215714;23;20323;-86
2023/03/02 11:34:17;;;;;;;2.05;1.55;;;13.00;79.50;;;;;;6215971;23;20020;-86
2023/03/02 11:36:55;;;;;;;1.98;1.58;;;13.00;79.40;;;;;;6216012;23;19997;-87
2023/03/02 11:39:27;;;;;;;3.60;1.50;;;13.00;79.20;;;;;;6215836;23;20074;-86
2023/03/02 11:41:53;;;;;;;1.55;1.30;;;13.10;79.00;;;;;;6215194;23;20004;-86
2023/03/02 11:44:20;;;;;;;2.10;1.52;;;13.10;78.60;;;;;;6189102;23;20391;-86
2023/03/02 11:46:50;;;;;;;2.15;1.58;;;13.10;78.50;;;;;;6189167;23;20008;-81
2023/03/02 11:49:25;;;;;;;1.95;1.60;;;13.20;78.50;;;;;;6215361;23;20016;-81
2023/03/02 11:51:56;;;;;;;2.15;1.52;;;13.20;78.10;;;;;;6214908;23;20011;-82
2023/03/02 11:54:27;;;;;;;2.10;1.60;;;13.30;78.40;;;;;;6214825;23;20127;-81
2023/03/02 11:56:54;;;;;;;2.22;1.70;;;13.40;77.90;;;;;;6188901;23;20012;-81
2023/03/02 11:59:20;;;;;;;1.95;1.77;;;13.50;78.10;;;;;;6213541;23;20083;-81
2023/03/02 12:01:50;;;;;;;2.10;1.50;;;13.70;77.70;;;;;;6214876;23;20004;-81
2023/03/02 12:04:27;;;;;;;2.22;1.67;;;14.00;76.50;;;;;;6214702;23;20004;-81
2023/03/02 12:06:52;;;;;;;2.83;1.85;;;14.10;75.30;;;;;;6212527;23;20008;-82
2023/03/02 12:09:21;;;;;;;2.00;1.80;;;14.30;75.60;;;;;;6214379;23;20083;-81
2023/03/02 12:11:58;;;;;;;2.22;1.55;;;14.60;75.40;;;;;;6214799;23;20016;-82
2023/03/02 12:14:39;;;;;;;1.60;1.50;;;15.00;74.40;;;;;;6214933;23;20020;-82
2023/03/02 12:17:20;;;;;;;1.33;1.10;;;15.60;73.20;;;;;;6188205;23;20007;-82
2023/03/02 12:19:47;;;;;;;2.75;1.38;;;16.90;71.90;;;;;;6213076;23;20411;-82
2023/03/02 12:22:23;;;;;;;2.65;1.38;;;18.30;68.00;;;;;;6214214;23;20004;-86
2023/03/02 12:25:00;;;;;;;30.08;3.25;;;19.60;65.20;;;;;;6215086;23;20342;-85
2023/03/02 12:27:32;;;;;;;5.63;1.70;;;20.90;64.50;;;;;;6215942;23;20055;-85
2023/03/02 12:30:10;;;;;;;17.63;1.80;;;21.10;61.20;;;;;;6188163;23;20059;-86
2023/03/02 12:32:36;;;;;;;25.88;2.67;;;20.90;62.50;;;;;;6215303;23;20514;-86
2023/03/02 12:35:10;;;;;;;8.85;1.85;;;20.00;59.80;;;;;;6214470;23;20011;-86
2023/03/02 12:37:52;;;;;;;6.43;1.50;;;19.60;59.90;;;;;;6214661;23;20009;-86
2023/03/02 12:40:39;;;;;;;2.80;1.50;;;19.20;62.30;;;;;;6188195;23;20000;-84
2023/03/02 12:43:31;;;;;;;1.80;1.20;;;18.80;60.80;;;;;;6216491;23;20004;-86
2023/03/02 12:46:27;;;;;;;3.47;1.20;;;18.40;61.10;;;;;;6216838;23;20024;-87
2023/03/02 12:49:02;;;;;;;1.70;1.30;;;18.10;61.80;;;;;;6190242;23;20008;-87
2023/03/02 12:51:32;;;;;;;1.58;1.20;;;17.80;62.20;;;;;;6218185;23;20047;-87
2023/03/02 12:54:02;;;;;;;2.95;1.27;;;17.50;62.60;;;;;;6217453;23;20012;-87
2023/03/02 12:56:28;;;;;;;;;;;17.20;62.90;;;;;;6190153;23;20084;-83
2023/03/02 12:58:53;;;;;;;5.05;1.45;;;17.00;63.40;;;;;;6188926;23;19939;-82
2023/03/02 13:01:22;;;;;;;2.08;1.40;;;16.40;64.40;;;;;;6217604;23;20001;-82
2023/03/02 13:03:48;;;;;;;2.28;1.50;;;16.20;65.10;;;;;;6216613;23;20001;-83
2023/03/02 13:06:16;;;;;;;3.00;1.60;;;16.10;65.60;;;;;;6216499;23;20423;-83